Eagle (EGE/KEGE)

Map

Destinations

Information

Location
Eagle, CO
Local Time
02:14 / 2:14 am
GMT Time
08:14 / 8:14 am
Gates
Unassigned
No FAA reported delays
METAR KEGE 270756Z AUTO 07007KT 10SM SCT120 11/02 A3004 RMK AO2 SLP119 T01110017
TAF KEGE 270533Z 2706/2806 16003KT P6SM SKC FM271400 24005KT P6SM -SHRA BKN080 FM271800 25010G17KT P6SM -SHRA BKN070 FM272200 33008KT P6SM VCSH SCT080 AMD LTD TO CLD VIS AND WIND TIL 271400